sensor_id;sensor_type;location;lat;lon;timestamp;P1;durP1;ratioP1;P2;durP2;ratioP2
7316;SDS011;3699;51.462;6.696;2023-04-25T00:01:45;12.47;;;5.57;;
7316;SDS011;3699;51.462;6.696;2023-04-25T00:04:12;15.57;;;6.10;;
7316;SDS011;3699;51.462;6.696;2023-04-25T00:06:40;12.33;;;4.87;;
7316;SDS011;3699;51.462;6.696;2023-04-25T00:09:07;12.57;;;5.37;;
7316;SDS011;3699;51.462;6.696;2023-04-25T00:11:36;11.57;;;5.90;;
7316;SDS011;3699;51.462;6.696;2023-04-25T00:14:03;17.80;;;5.77;;
7316;SDS011;3699;51.462;6.696;2023-04-25T00:16:31;12.90;;;5.30;;
7316;SDS011;3699;51.462;6.696;2023-04-25T00:18:59;10.40;;;4.87;;
7316;SDS011;3699;51.462;6.696;2023-04-25T00:21:27;17.30;;;5.47;;
7316;SDS011;3699;51.462;6.696;2023-04-25T00:23:55;13.80;;;5.73;;
7316;SDS011;3699;51.462;6.696;2023-04-25T00:26:22;14.70;;;5.90;;
7316;SDS011;3699;51.462;6.696;2023-04-25T00:28:49;13.70;;;5.50;;
7316;SDS011;3699;51.462;6.696;2023-04-25T00:31:16;14.40;;;5.47;;
7316;SDS011;3699;51.462;6.696;2023-04-25T00:33:43;16.77;;;5.67;;
7316;SDS011;3699;51.462;6.696;2023-04-25T00:36:10;14.40;;;5.30;;
7316;SDS011;3699;51.462;6.696;2023-04-25T00:38:37;13.13;;;5.60;;
7316;SDS011;3699;51.462;6.696;2023-04-25T00:41:06;14.70;;;5.70;;
7316;SDS011;3699;51.462;6.696;2023-04-25T00:43:33;12.60;;;5.80;;
7316;SDS011;3699;51.462;6.696;2023-04-25T00:46:02;11.27;;;5.17;;
7316;SDS011;3699;51.462;6.696;2023-04-25T00:48:29;16.20;;;5.77;;
7316;SDS011;3699;51.462;6.696;2023-04-25T00:50:57;12.03;;;5.10;;
7316;SDS011;3699;51.462;6.696;2023-04-25T00:53:25;14.03;;;5.90;;
7316;SDS011;3699;51.462;6.696;2023-04-25T00:55:53;12.93;;;5.40;;
7316;SDS011;3699;51.462;6.696;2023-04-25T00:58:21;14.43;;;6.10;;
7316;SDS011;3699;51.462;6.696;2023-04-25T01:00:49;17.93;;;6.00;;
7316;SDS011;3699;51.462;6.696;2023-04-25T01:03:17;16.50;;;6.13;;
7316;SDS011;3699;51.462;6.696;2023-04-25T01:05:46;19.63;;;6.93;;
7316;SDS011;3699;51.462;6.696;2023-04-25T01:08:13;11.53;;;6.60;;
7316;SDS011;3699;51.462;6.696;2023-04-25T01:10:40;11.40;;;6.53;;
7316;SDS011;3699;51.462;6.696;2023-04-25T01:13:07;16.60;;;6.13;;
7316;SDS011;3699;51.462;6.696;2023-04-25T01:15:35;13.83;;;5.97;;
7316;SDS011;3699;51.462;6.696;2023-04-25T01:18:02;14.67;;;6.20;;
7316;SDS011;3699;51.462;6.696;2023-04-25T01:20:29;14.43;;;6.03;;
7316;SDS011;3699;51.462;6.696;2023-04-25T01:23:00;15.13;;;6.93;;
7316;SDS011;3699;51.462;6.696;2023-04-25T01:25:28;12.20;;;5.53;;
7316;SDS011;3699;51.462;6.696;2023-04-25T01:27:55;10.17;;;5.63;;
7316;SDS011;3699;51.462;6.696;2023-04-25T01:30:23;11.53;;;5.57;;
7316;SDS011;3699;51.462;6.696;2023-04-25T01:32:51;10.93;;;5.60;;
7316;SDS011;3699;51.462;6.696;2023-04-25T01:35:20;14.87;;;5.33;;
7316;SDS011;3699;51.462;6.696;2023-04-25T01:37:49;14.87;;;5.73;;
7316;SDS011;3699;51.462;6.696;2023-04-25T01:40:18;16.80;;;6.20;;
7316;SDS011;3699;51.462;6.696;2023-04-25T01:42:48;15.73;;;6.10;;
7316;SDS011;3699;51.462;6.696;2023-04-25T01:45:15;10.53;;;5.23;;
7316;SDS011;3699;51.462;6.696;2023-04-25T01:47:42;10.90;;;5.67;;
7316;SDS011;3699;51.462;6.696;2023-04-25T01:50:11;10.63;;;5.83;;
7316;SDS011;3699;51.462;6.696;2023-04-25T01:52:38;9.70;;;5.90;;
7316;SDS011;3699;51.462;6.696;2023-04-25T01:55:06;12.40;;;5.90;;
7316;SDS011;3699;51.462;6.696;2023-04-25T01:57:34;10.70;;;5.40;;
7316;SDS011;3699;51.462;6.696;2023-04-25T02:00:02;16.47;;;6.57;;
7316;SDS011;3699;51.462;6.696;2023-04-25T02:02:31;16.00;;;5.07;;
7316;SDS011;3699;51.462;6.696;2023-04-25T02:04:58;14.53;;;6.07;;
7316;SDS011;3699;51.462;6.696;2023-04-25T02:07:25;11.53;;;6.70;;
7316;SDS011;3699;51.462;6.696;2023-04-25T02:09:52;14.20;;;5.70;;
7316;SDS011;3699;51.462;6.696;2023-04-25T02:12:19;15.13;;;5.47;;
7316;SDS011;3699;51.462;6.696;2023-04-25T02:14:47;12.73;;;5.23;;
7316;SDS011;3699;51.462;6.696;2023-04-25T02:17:13;11.63;;;5.27;;
7316;SDS011;3699;51.462;6.696;2023-04-25T02:19:41;15.57;;;5.70;;
7316;SDS011;3699;51.462;6.696;2023-04-25T02:22:07;13.07;;;5.17;;
7316;SDS011;3699;51.462;6.696;2023-04-25T02:24:35;11.07;;;5.23;;
7316;SDS011;3699;51.462;6.696;2023-04-25T02:27:02;16.80;;;5.97;;
7316;SDS011;3699;51.462;6.696;2023-04-25T02:29:29;9.03;;;4.50;;
7316;SDS011;3699;51.462;6.696;2023-04-25T02:31:57;11.97;;;5.67;;
7316;SDS011;3699;51.462;6.696;2023-04-25T02:34:23;9.37;;;5.20;;
7316;SDS011;3699;51.462;6.696;2023-04-25T02:36:50;12.40;;;6.33;;
7316;SDS011;3699;51.462;6.696;2023-04-25T02:39:17;12.70;;;5.83;;
7316;SDS011;3699;51.462;6.696;2023-04-25T02:41:44;20.53;;;6.00;;
7316;SDS011;3699;51.462;6.696;2023-04-25T02:44:11;15.17;;;5.60;;
7316;SDS011;3699;51.462;6.696;2023-04-25T02:46:37;17.50;;;6.03;;
7316;SDS011;3699;51.462;6.696;2023-04-25T02:49:05;14.90;;;5.80;;
7316;SDS011;3699;51.462;6.696;2023-04-25T02:51:32;10.20;;;4.87;;
7316;SDS011;3699;51.462;6.696;2023-04-25T02:53:59;17.83;;;6.30;;
7316;SDS011;3699;51.462;6.696;2023-04-25T02:56:26;11.17;;;5.50;;
7316;SDS011;3699;51.462;6.696;2023-04-25T02:58:52;19.03;;;6.33;;
7316;SDS011;3699;51.462;6.696;2023-04-25T03:01:20;13.57;;;5.33;;
7316;SDS011;3699;51.462;6.696;2023-04-25T03:03:46;16.20;;;5.47;;
7316;SDS011;3699;51.462;6.696;2023-04-25T03:06:14;14.17;;;5.97;;
7316;SDS011;3699;51.462;6.696;2023-04-25T03:08:41;15.73;;;5.13;;
7316;SDS011;3699;51.462;6.696;2023-04-25T03:11:08;13.60;;;5.37;;
7316;SDS011;3699;51.462;6.696;2023-04-25T03:13:35;11.83;;;5.53;;
7316;SDS011;3699;51.462;6.696;2023-04-25T03:16:02;10.73;;;5.13;;
7316;SDS011;3699;51.462;6.696;2023-04-25T03:18:29;14.07;;;6.03;;
7316;SDS011;3699;51.462;6.696;2023-04-25T03:20:55;14.17;;;5.07;;
7316;SDS011;3699;51.462;6.696;2023-04-25T03:23:23;9.47;;;4.70;;
7316;SDS011;3699;51.462;6.696;2023-04-25T03:25:51;18.83;;;6.33;;
7316;SDS011;3699;51.462;6.696;2023-04-25T03:28:17;16.60;;;5.37;;
7316;SDS011;3699;51.462;6.696;2023-04-25T03:30:44;16.70;;;5.40;;
7316;SDS011;3699;51.462;6.696;2023-04-25T03:33:11;11.80;;;6.13;;
7316;SDS011;3699;51.462;6.696;2023-04-25T03:35:38;13.03;;;6.33;;
7316;SDS011;3699;51.462;6.696;2023-04-25T03:38:05;18.30;;;5.87;;
7316;SDS011;3699;51.462;6.696;2023-04-25T03:40:33;19.53;;;6.70;;
7316;SDS011;3699;51.462;6.696;2023-04-25T03:43:00;16.90;;;4.93;;
7316;SDS011;3699;51.462;6.696;2023-04-25T03:45:26;11.90;;;5.33;;
7316;SDS011;3699;51.462;6.696;2023-04-25T03:47:53;17.23;;;5.83;;
7316;SDS011;3699;51.462;6.696;2023-04-25T03:50:20;17.07;;;5.93;;
7316;SDS011;3699;51.462;6.696;2023-04-25T03:52:46;14.20;;;5.60;;
7316;SDS011;3699;51.462;6.696;2023-04-25T03:55:13;16.53;;;6.30;;
7316;SDS011;3699;51.462;6.696;2023-04-25T03:57:41;15.97;;;6.40;;
7316;SDS011;3699;51.462;6.696;2023-04-25T04:00:08;6.60;;;4.73;;
7316;SDS011;3699;51.462;6.696;2023-04-25T04:02:36;12.77;;;5.77;;
7316;SDS011;3699;51.462;6.696;2023-04-25T04:05:04;18.40;;;6.57;;
7316;SDS011;3699;51.462;6.696;2023-04-25T04:07:31;17.40;;;6.13;;
7316;SDS011;3699;51.462;6.696;2023-04-25T04:10:01;17.20;;;5.80;;
7316;SDS011;3699;51.462;6.696;2023-04-25T04:12:30;17.10;;;5.70;;
7316;SDS011;3699;51.462;6.696;2023-04-25T04:14:58;15.00;;;6.37;;
7316;SDS011;3699;51.462;6.696;2023-04-25T04:17:25;20.80;;;6.27;;
7316;SDS011;3699;51.462;6.696;2023-04-25T04:19:51;22.30;;;7.40;;
7316;SDS011;3699;51.462;6.696;2023-04-25T04:22:18;18.03;;;6.00;;
7316;SDS011;3699;51.462;6.696;2023-04-25T04:24:45;12.90;;;5.90;;
7316;SDS011;3699;51.462;6.696;2023-04-25T04:27:11;23.80;;;6.60;;
7316;SDS011;3699;51.462;6.696;2023-04-25T04:29:38;18.57;;;6.63;;
7316;SDS011;3699;51.462;6.696;2023-04-25T04:32:07;12.87;;;5.70;;
7316;SDS011;3699;51.462;6.696;2023-04-25T04:34:34;17.63;;;6.37;;
7316;SDS011;3699;51.462;6.696;2023-04-25T04:37:01;17.37;;;6.27;;
7316;SDS011;3699;51.462;6.696;2023-04-25T04:39:28;19.20;;;6.73;;
7316;SDS011;3699;51.462;6.696;2023-04-25T04:41:54;12.47;;;6.60;;
7316;SDS011;3699;51.462;6.696;2023-04-25T04:44:22;13.57;;;7.83;;
7316;SDS011;3699;51.462;6.696;2023-04-25T04:46:48;17.50;;;6.57;;
7316;SDS011;3699;51.462;6.696;2023-04-25T04:49:16;14.33;;;6.43;;
7316;SDS011;3699;51.462;6.696;2023-04-25T04:51:43;17.63;;;6.80;;
7316;SDS011;3699;51.462;6.696;2023-04-25T04:54:10;19.10;;;5.63;;
7316;SDS011;3699;51.462;6.696;2023-04-25T04:56:37;13.03;;;5.93;;
7316;SDS011;3699;51.462;6.696;2023-04-25T04:59:04;17.40;;;6.20;;
7316;SDS011;3699;51.462;6.696;2023-04-25T05:01:32;11.17;;;6.07;;
7316;SDS011;3699;51.462;6.696;2023-04-25T05:04:00;21.13;;;6.03;;
7316;SDS011;3699;51.462;6.696;2023-04-25T05:06:29;19.27;;;5.93;;
7316;SDS011;3699;51.462;6.696;2023-04-25T05:08:56;18.70;;;8.40;;
7316;SDS011;3699;51.462;6.696;2023-04-25T05:11:23;18.20;;;6.17;;
7316;SDS011;3699;51.462;6.696;2023-04-25T05:13:50;22.73;;;6.50;;
7316;SDS011;3699;51.462;6.696;2023-04-25T05:16:18;19.97;;;7.47;;
7316;SDS011;3699;51.462;6.696;2023-04-25T05:18:45;21.73;;;7.17;;
7316;SDS011;3699;51.462;6.696;2023-04-25T05:21:12;15.70;;;6.30;;
7316;SDS011;3699;51.462;6.696;2023-04-25T05:23:40;14.53;;;6.27;;
7316;SDS011;3699;51.462;6.696;2023-04-25T05:26:07;24.03;;;6.67;;
7316;SDS011;3699;51.462;6.696;2023-04-25T05:28:38;14.63;;;6.73;;
7316;SDS011;3699;51.462;6.696;2023-04-25T05:31:05;20.87;;;6.87;;
7316;SDS011;3699;51.462;6.696;2023-04-25T05:33:32;15.63;;;6.33;;
7316;SDS011;3699;51.462;6.696;2023-04-25T05:35:58;11.00;;;5.27;;
7316;SDS011;3699;51.462;6.696;2023-04-25T05:38:25;20.93;;;6.30;;
7316;SDS011;3699;51.462;6.696;2023-04-25T05:40:53;15.20;;;5.30;;
7316;SDS011;3699;51.462;6.696;2023-04-25T05:43:20;17.53;;;5.90;;
7316;SDS011;3699;51.462;6.696;2023-04-25T05:45:47;14.23;;;6.00;;
7316;SDS011;3699;51.462;6.696;2023-04-25T05:48:14;17.60;;;5.57;;
7316;SDS011;3699;51.462;6.696;2023-04-25T05:50:40;18.00;;;5.23;;
7316;SDS011;3699;51.462;6.696;2023-04-25T05:53:08;15.30;;;6.60;;
7316;SDS011;3699;51.462;6.696;2023-04-25T05:55:35;17.83;;;5.10;;
7316;SDS011;3699;51.462;6.696;2023-04-25T05:58:04;14.67;;;5.53;;
7316;SDS011;3699;51.462;6.696;2023-04-25T06:00:32;10.83;;;4.63;;
7316;SDS011;3699;51.462;6.696;2023-04-25T06:02:58;13.50;;;5.40;;
7316;SDS011;3699;51.462;6.696;2023-04-25T06:05:25;11.30;;;5.13;;
7316;SDS011;3699;51.462;6.696;2023-04-25T06:07:52;17.63;;;5.00;;
7316;SDS011;3699;51.462;6.696;2023-04-25T06:10:19;10.60;;;4.50;;
7316;SDS011;3699;51.462;6.696;2023-04-25T06:12:47;13.53;;;5.50;;
7316;SDS011;3699;51.462;6.696;2023-04-25T06:15:16;11.07;;;4.80;;
7316;SDS011;3699;51.462;6.696;2023-04-25T06:17:42;14.63;;;4.73;;
7316;SDS011;3699;51.462;6.696;2023-04-25T06:20:09;12.80;;;4.07;;
7316;SDS011;3699;51.462;6.696;2023-04-25T06:22:36;12.93;;;4.63;;
7316;SDS011;3699;51.462;6.696;2023-04-25T06:25:04;9.30;;;4.60;;
7316;SDS011;3699;51.462;6.696;2023-04-25T06:27:32;16.10;;;3.83;;
7316;SDS011;3699;51.462;6.696;2023-04-25T06:29:58;12.10;;;4.87;;
7316;SDS011;3699;51.462;6.696;2023-04-25T06:32:26;7.30;;;4.03;;
7316;SDS011;3699;51.462;6.696;2023-04-25T06:34:54;8.40;;;3.70;;
7316;SDS011;3699;51.462;6.696;2023-04-25T06:37:21;10.47;;;3.77;;
7316;SDS011;3699;51.462;6.696;2023-04-25T06:39:48;11.30;;;4.07;;
7316;SDS011;3699;51.462;6.696;2023-04-25T06:42:15;13.67;;;4.50;;
7316;SDS011;3699;51.462;6.696;2023-04-25T06:44:41;10.57;;;3.70;;
7316;SDS011;3699;51.462;6.696;2023-04-25T06:47:08;8.93;;;4.53;;
7316;SDS011;3699;51.462;6.696;2023-04-25T06:49:36;17.23;;;5.33;;
7316;SDS011;3699;51.462;6.696;2023-04-25T06:52:03;13.80;;;5.13;;
7316;SDS011;3699;51.462;6.696;2023-04-25T06:54:30;14.67;;;4.73;;
7316;SDS011;3699;51.462;6.696;2023-04-25T06:56:56;11.50;;;4.40;;
7316;SDS011;3699;51.462;6.696;2023-04-25T06:59:23;15.43;;;5.20;;
7316;SDS011;3699;51.462;6.696;2023-04-25T07:01:50;11.47;;;4.90;;
7316;SDS011;3699;51.462;6.696;2023-04-25T07:04:16;13.43;;;5.03;;
7316;SDS011;3699;51.462;6.696;2023-04-25T07:06:44;15.90;;;4.63;;
7316;SDS011;3699;51.462;6.696;2023-04-25T07:09:13;13.50;;;4.60;;
7316;SDS011;3699;51.462;6.696;2023-04-25T07:11:39;10.50;;;4.57;;
7316;SDS011;3699;51.462;6.696;2023-04-25T07:14:06;9.77;;;4.60;;
7316;SDS011;3699;51.462;6.696;2023-04-25T07:16:33;12.20;;;5.63;;
7316;SDS011;3699;51.462;6.696;2023-04-25T07:19:00;10.83;;;3.90;;
7316;SDS011;3699;51.462;6.696;2023-04-25T07:21:27;15.77;;;4.40;;
7316;SDS011;3699;51.462;6.696;2023-04-25T07:23:55;15.93;;;4.30;;
7316;SDS011;3699;51.462;6.696;2023-04-25T07:26:21;9.23;;;3.53;;
7316;SDS011;3699;51.462;6.696;2023-04-25T07:28:48;17.17;;;4.90;;
7316;SDS011;3699;51.462;6.696;2023-04-25T07:31:16;16.57;;;4.57;;
7316;SDS011;3699;51.462;6.696;2023-04-25T07:33:43;11.63;;;3.80;;
7316;SDS011;3699;51.462;6.696;2023-04-25T07:36:10;10.67;;;3.30;;
7316;SDS011;3699;51.462;6.696;2023-04-25T07:38:37;10.73;;;3.43;;
7316;SDS011;3699;51.462;6.696;2023-04-25T07:41:05;11.77;;;4.27;;
7316;SDS011;3699;51.462;6.696;2023-04-25T07:43:32;12.93;;;4.83;;
7316;SDS011;3699;51.462;6.696;2023-04-25T07:46:00;12.63;;;3.53;;
7316;SDS011;3699;51.462;6.696;2023-04-25T07:48:27;6.83;;;2.80;;
7316;SDS011;3699;51.462;6.696;2023-04-25T07:50:54;7.07;;;2.80;;
7316;SDS011;3699;51.462;6.696;2023-04-25T07:53:20;10.20;;;3.27;;
7316;SDS011;3699;51.462;6.696;2023-04-25T07:55:47;14.33;;;4.20;;
7316;SDS011;3699;51.462;6.696;2023-04-25T07:58:15;28.17;;;7.27;;
7316;SDS011;3699;51.462;6.696;2023-04-25T08:00:46;11.03;;;3.97;;
7316;SDS011;3699;51.462;6.696;2023-04-25T08:03:12;7.67;;;3.07;;
7316;SDS011;3699;51.462;6.696;2023-04-25T08:05:39;19.73;;;5.27;;
7316;SDS011;3699;51.462;6.696;2023-04-25T08:08:06;81.70;;;16.03;;
7316;SDS011;3699;51.462;6.696;2023-04-25T08:10:33;72.93;;;14.97;;
7316;SDS011;3699;51.462;6.696;2023-04-25T08:13:00;79.30;;;13.97;;
7316;SDS011;3699;51.462;6.696;2023-04-25T08:15:28;47.20;;;11.20;;
7316;SDS011;3699;51.462;6.696;2023-04-25T08:17:55;7.23;;;3.10;;
7316;SDS011;3699;51.462;6.696;2023-04-25T08:20:22;14.73;;;3.50;;
7316;SDS011;3699;51.462;6.696;2023-04-25T08:22:50;18.50;;;5.43;;
7316;SDS011;3699;51.462;6.696;2023-04-25T08:25:16;27.20;;;6.67;;
7316;SDS011;3699;51.462;6.696;2023-04-25T08:27:43;21.70;;;5.63;;
7316;SDS011;3699;51.462;6.696;2023-04-25T08:30:10;13.27;;;3.73;;
7316;SDS011;3699;51.462;6.696;2023-04-25T08:32:38;18.83;;;5.97;;
7316;SDS011;3699;51.462;6.696;2023-04-25T08:35:05;15.80;;;4.70;;
7316;SDS011;3699;51.462;6.696;2023-04-25T08:37:32;8.23;;;3.13;;
7316;SDS011;3699;51.462;6.696;2023-04-25T08:39:59;7.17;;;3.13;;
7316;SDS011;3699;51.462;6.696;2023-04-25T08:42:27;3.97;;;2.40;;
7316;SDS011;3699;51.462;6.696;2023-04-25T08:44:57;5.73;;;2.50;;
7316;SDS011;3699;51.462;6.696;2023-04-25T08:47:25;5.60;;;2.30;;
7316;SDS011;3699;51.462;6.696;2023-04-25T08:49:55;6.40;;;2.83;;
7316;SDS011;3699;51.462;6.696;2023-04-25T08:52:22;9.33;;;2.40;;
7316;SDS011;3699;51.462;6.696;2023-04-25T08:54:49;8.40;;;2.77;;
7316;SDS011;3699;51.462;6.696;2023-04-25T08:57:18;7.87;;;3.20;;
7316;SDS011;3699;51.462;6.696;2023-04-25T08:59:46;8.97;;;2.23;;
7316;SDS011;3699;51.462;6.696;2023-04-25T09:02:13;5.43;;;2.07;;
7316;SDS011;3699;51.462;6.696;2023-04-25T09:04:42;8.57;;;2.77;;
7316;SDS011;3699;51.462;6.696;2023-04-25T09:07:11;6.87;;;2.40;;
7316;SDS011;3699;51.462;6.696;2023-04-25T09:09:40;7.17;;;2.47;;
7316;SDS011;3699;51.462;6.696;2023-04-25T09:12:07;5.87;;;2.20;;
7316;SDS011;3699;51.462;6.696;2023-04-25T09:14:34;8.27;;;2.23;;
7316;SDS011;3699;51.462;6.696;2023-04-25T09:17:02;5.73;;;1.90;;
7316;SDS011;3699;51.462;6.696;2023-04-25T09:19:30;6.23;;;1.90;;
7316;SDS011;3699;51.462;6.696;2023-04-25T09:21:58;6.97;;;2.00;;
7316;SDS011;3699;51.462;6.696;2023-04-25T09:24:31;7.10;;;1.93;;
7316;SDS011;3699;51.462;6.696;2023-04-25T09:26:59;4.10;;;2.10;;
7316;SDS011;3699;51.462;6.696;2023-04-25T09:29:29;6.23;;;2.20;;
7316;SDS011;3699;51.462;6.696;2023-04-25T09:32:13;6.87;;;2.23;;
7316;SDS011;3699;51.462;6.696;2023-04-25T09:34:42;3.60;;;1.77;;
7316;SDS011;3699;51.462;6.696;2023-04-25T09:37:16;8.93;;;2.47;;
7316;SDS011;3699;51.462;6.696;2023-04-25T09:39:45;5.80;;;2.30;;
7316;SDS011;3699;51.462;6.696;2023-04-25T09:42:12;5.43;;;2.07;;
7316;SDS011;3699;51.462;6.696;2023-04-25T09:44:41;6.43;;;2.57;;
7316;SDS011;3699;51.462;6.696;2023-04-25T09:47:09;2.97;;;1.80;;
7316;SDS011;3699;51.462;6.696;2023-04-25T09:49:38;5.20;;;2.00;;
7316;SDS011;3699;51.462;6.696;2023-04-25T09:52:06;7.60;;;2.80;;
7316;SDS011;3699;51.462;6.696;2023-04-25T09:54:33;2.90;;;1.90;;
7316;SDS011;3699;51.462;6.696;2023-04-25T09:57:03;4.83;;;1.90;;
7316;SDS011;3699;51.462;6.696;2023-04-25T09:59:36;6.20;;;2.20;;
7316;SDS011;3699;51.462;6.696;2023-04-25T10:02:05;8.73;;;2.07;;
7316;SDS011;3699;51.462;6.696;2023-04-25T10:04:33;4.93;;;2.20;;
7316;SDS011;3699;51.462;6.696;2023-04-25T10:07:01;7.47;;;2.63;;
7316;SDS011;3699;51.462;6.696;2023-04-25T10:09:29;4.47;;;2.30;;
7316;SDS011;3699;51.462;6.696;2023-04-25T10:11:59;4.63;;;2.53;;
7316;SDS011;3699;51.462;6.696;2023-04-25T10:14:27;5.40;;;2.27;;
7316;SDS011;3699;51.462;6.696;2023-04-25T10:16:55;10.23;;;2.40;;
7316;SDS011;3699;51.462;6.696;2023-04-25T10:19:23;4.30;;;1.70;;
7316;SDS011;3699;51.462;6.696;2023-04-25T10:21:51;5.67;;;2.40;;
7316;SDS011;3699;51.462;6.696;2023-04-25T10:24:20;6.97;;;2.20;;
7316;SDS011;3699;51.462;6.696;2023-04-25T10:26:47;4.63;;;1.80;;
7316;SDS011;3699;51.462;6.696;2023-04-25T10:29:21;7.17;;;1.90;;
7316;SDS011;3699;51.462;6.696;2023-04-25T10:31:50;7.70;;;2.23;;
7316;SDS011;3699;51.462;6.696;2023-04-25T10:34:17;5.83;;;1.83;;
7316;SDS011;3699;51.462;6.696;2023-04-25T10:36:48;7.00;;;2.40;;
7316;SDS011;3699;51.462;6.696;2023-04-25T10:39:21;3.40;;;1.80;;
7316;SDS011;3699;51.462;6.696;2023-04-25T10:41:52;5.40;;;2.07;;
7316;SDS011;3699;51.462;6.696;2023-04-25T10:44:21;4.70;;;1.90;;
7316;SDS011;3699;51.462;6.696;2023-04-25T10:46:47;4.73;;;1.90;;
7316;SDS011;3699;51.462;6.696;2023-04-25T10:52:11;6.20;;;2.10;;
7316;SDS011;3699;51.462;6.696;2023-04-25T10:54:42;5.43;;;2.10;;
7316;SDS011;3699;51.462;6.696;2023-04-25T10:57:27;5.93;;;1.77;;
7316;SDS011;3699;51.462;6.696;2023-04-25T11:00:04;2.60;;;2.07;;
7316;SDS011;3699;51.462;6.696;2023-04-25T11:02:36;4.60;;;1.80;;
7316;SDS011;3699;51.462;6.696;2023-04-25T11:05:05;10.43;;;2.07;;
7316;SDS011;3699;51.462;6.696;2023-04-25T11:07:43;6.57;;;2.07;;
7316;SDS011;3699;51.462;6.696;2023-04-25T11:10:16;2.10;;;1.90;;
7316;SDS011;3699;51.462;6.696;2023-04-25T11:12:44;9.50;;;1.87;;
7316;SDS011;3699;51.462;6.696;2023-04-25T11:15:11;7.47;;;2.53;;
7316;SDS011;3699;51.462;6.696;2023-04-25T11:17:38;4.70;;;3.07;;
7316;SDS011;3699;51.462;6.696;2023-04-25T11:20:08;4.13;;;2.00;;
7316;SDS011;3699;51.462;6.696;2023-04-25T11:22:37;5.23;;;2.73;;
7316;SDS011;3699;51.462;6.696;2023-04-25T11:25:06;5.50;;;2.00;;
7316;SDS011;3699;51.462;6.696;2023-04-25T11:27:33;6.13;;;2.43;;
7316;SDS011;3699;51.462;6.696;2023-04-25T11:30:09;7.67;;;2.20;;
7316;SDS011;3699;51.462;6.696;2023-04-25T11:32:38;4.93;;;2.03;;
7316;SDS011;3699;51.462;6.696;2023-04-25T11:35:07;5.73;;;2.23;;
7316;SDS011;3699;51.462;6.696;2023-04-25T11:37:34;7.27;;;2.13;;
7316;SDS011;3699;51.462;6.696;2023-04-25T11:40:02;10.10;;;2.47;;
7316;SDS011;3699;51.462;6.696;2023-04-25T11:42:31;5.60;;;2.13;;
7316;SDS011;3699;51.462;6.696;2023-04-25T11:44:58;3.87;;;2.17;;
7316;SDS011;3699;51.462;6.696;2023-04-25T11:47:27;4.47;;;2.30;;
7316;SDS011;3699;51.462;6.696;2023-04-25T11:49:55;8.33;;;2.53;;
7316;SDS011;3699;51.462;6.696;2023-04-25T11:52:24;5.33;;;2.30;;
7316;SDS011;3699;51.462;6.696;2023-04-25T11:55:00;5.57;;;2.27;;
7316;SDS011;3699;51.462;6.696;2023-04-25T11:57:30;4.97;;;2.50;;
7316;SDS011;3699;51.462;6.696;2023-04-25T12:00:04;4.03;;;2.33;;
7316;SDS011;3699;51.462;6.696;2023-04-25T12:02:34;8.00;;;3.10;;
7316;SDS011;3699;51.462;6.696;2023-04-25T12:05:01;4.87;;;2.70;;
7316;SDS011;3699;51.462;6.696;2023-04-25T12:07:29;2.50;;;2.03;;
7316;SDS011;3699;51.462;6.696;2023-04-25T12:09:57;6.43;;;2.17;;
7316;SDS011;3699;51.462;6.696;2023-04-25T12:12:26;6.40;;;2.73;;
7316;SDS011;3699;51.462;6.696;2023-04-25T12:14:53;7.87;;;2.50;;
7316;SDS011;3699;51.462;6.696;2023-04-25T12:17:21;6.20;;;2.40;;
7316;SDS011;3699;51.462;6.696;2023-04-25T12:19:49;5.33;;;3.03;;
7316;SDS011;3699;51.462;6.696;2023-04-25T12:22:19;9.40;;;2.57;;
7316;SDS011;3699;51.462;6.696;2023-04-25T12:24:48;5.17;;;3.13;;
7316;SDS011;3699;51.462;6.696;2023-04-25T12:27:16;10.87;;;2.27;;
7316;SDS011;3699;51.462;6.696;2023-04-25T12:29:49;6.80;;;2.40;;
7316;SDS011;3699;51.462;6.696;2023-04-25T12:32:17;4.67;;;2.57;;
7316;SDS011;3699;51.462;6.696;2023-04-25T12:34:44;5.17;;;2.10;;
7316;SDS011;3699;51.462;6.696;2023-04-25T12:37:11;6.43;;;2.10;;
7316;SDS011;3699;51.462;6.696;2023-04-25T12:39:38;9.83;;;3.63;;
7316;SDS011;3699;51.462;6.696;2023-04-25T12:42:06;4.93;;;2.50;;
7316;SDS011;3699;51.462;6.696;2023-04-25T12:44:36;5.63;;;2.50;;
7316;SDS011;3699;51.462;6.696;2023-04-25T12:47:03;4.00;;;2.43;;
7316;SDS011;3699;51.462;6.696;2023-04-25T12:49:30;7.73;;;2.10;;
7316;SDS011;3699;51.462;6.696;2023-04-25T12:51:58;4.67;;;1.87;;
7316;SDS011;3699;51.462;6.696;2023-04-25T12:54:25;5.10;;;2.10;;
7316;SDS011;3699;51.462;6.696;2023-04-25T12:56:51;5.23;;;2.40;;
7316;SDS011;3699;51.462;6.696;2023-04-25T12:59:20;5.30;;;2.03;;
7316;SDS011;3699;51.462;6.696;2023-04-25T13:01:46;5.47;;;1.70;;
7316;SDS011;3699;51.462;6.696;2023-04-25T13:04:13;5.90;;;2.47;;
7316;SDS011;3699;51.462;6.696;2023-04-25T13:06:40;5.03;;;1.67;;
7316;SDS011;3699;51.462;6.696;2023-04-25T13:09:07;3.70;;;1.90;;
7316;SDS011;3699;51.462;6.696;2023-04-25T13:11:34;5.93;;;2.13;;
7316;SDS011;3699;51.462;6.696;2023-04-25T13:14:01;1.93;;;1.70;;
7316;SDS011;3699;51.462;6.696;2023-04-25T13:16:29;4.70;;;2.37;;
7316;SDS011;3699;51.462;6.696;2023-04-25T13:18:56;7.97;;;2.00;;
7316;SDS011;3699;51.462;6.696;2023-04-25T13:21:24;3.93;;;1.80;;
7316;SDS011;3699;51.462;6.696;2023-04-25T13:23:50;8.03;;;2.20;;
7316;SDS011;3699;51.462;6.696;2023-04-25T13:26:17;4.10;;;2.07;;
7316;SDS011;3699;51.462;6.696;2023-04-25T13:28:44;9.63;;;2.40;;
7316;SDS011;3699;51.462;6.696;2023-04-25T13:31:11;8.07;;;2.97;;
7316;SDS011;3699;51.462;6.696;2023-04-25T13:33:39;6.00;;;2.30;;
7316;SDS011;3699;51.462;6.696;2023-04-25T13:36:06;6.73;;;2.20;;
7316;SDS011;3699;51.462;6.696;2023-04-25T13:38:33;6.47;;;1.83;;
7316;SDS011;3699;51.462;6.696;2023-04-25T13:40:59;8.17;;;2.40;;
7316;SDS011;3699;51.462;6.696;2023-04-25T13:43:26;5.50;;;2.10;;
7316;SDS011;3699;51.462;6.696;2023-04-25T13:45:53;4.50;;;2.00;;
7316;SDS011;3699;51.462;6.696;2023-04-25T13:48:20;4.83;;;1.63;;
7316;SDS011;3699;51.462;6.696;2023-04-25T13:50:49;6.80;;;1.90;;
7316;SDS011;3699;51.462;6.696;2023-04-25T13:53:15;6.07;;;2.10;;
7316;SDS011;3699;51.462;6.696;2023-04-25T13:55:42;3.97;;;1.80;;
7316;SDS011;3699;51.462;6.696;2023-04-25T13:58:09;2.93;;;1.77;;
7316;SDS011;3699;51.462;6.696;2023-04-25T14:00:37;2.07;;;1.70;;
7316;SDS011;3699;51.462;6.696;2023-04-25T14:03:05;3.87;;;1.57;;
7316;SDS011;3699;51.462;6.696;2023-04-25T14:05:33;2.73;;;1.77;;
7316;SDS011;3699;51.462;6.696;2023-04-25T14:08:06;2.73;;;1.70;;
7316;SDS011;3699;51.462;6.696;2023-04-25T14:10:34;4.33;;;2.23;;
7316;SDS011;3699;51.462;6.696;2023-04-25T14:13:01;4.73;;;1.70;;
7316;SDS011;3699;51.462;6.696;2023-04-25T14:15:29;3.53;;;1.60;;
7316;SDS011;3699;51.462;6.696;2023-04-25T14:17:57;4.47;;;1.50;;
7316;SDS011;3699;51.462;6.696;2023-04-25T14:20:23;7.53;;;2.10;;
7316;SDS011;3699;51.462;6.696;2023-04-25T14:22:50;4.10;;;1.80;;
7316;SDS011;3699;51.462;6.696;2023-04-25T14:25:20;7.33;;;1.60;;
7316;SDS011;3699;51.462;6.696;2023-04-25T14:27:47;4.23;;;1.40;;
7316;SDS011;3699;51.462;6.696;2023-04-25T14:30:15;2.93;;;1.60;;
7316;SDS011;3699;51.462;6.696;2023-04-25T14:32:42;5.87;;;1.70;;
7316;SDS011;3699;51.462;6.696;2023-04-25T14:35:08;5.83;;;2.07;;
7316;SDS011;3699;51.462;6.696;2023-04-25T14:37:35;4.83;;;2.27;;
7316;SDS011;3699;51.462;6.696;2023-04-25T14:40:02;4.50;;;1.87;;
7316;SDS011;3699;51.462;6.696;2023-04-25T14:42:31;6.23;;;2.23;;
7316;SDS011;3699;51.462;6.696;2023-04-25T14:44:59;7.90;;;2.63;;
7316;SDS011;3699;51.462;6.696;2023-04-25T14:47:25;2.77;;;1.60;;
7316;SDS011;3699;51.462;6.696;2023-04-25T14:49:52;7.30;;;2.20;;
7316;SDS011;3699;51.462;6.696;2023-04-25T14:52:19;7.60;;;2.17;;
7316;SDS011;3699;51.462;6.696;2023-04-25T14:54:46;4.63;;;2.00;;
7316;SDS011;3699;51.462;6.696;2023-04-25T14:57:13;3.67;;;1.83;;
7316;SDS011;3699;51.462;6.696;2023-04-25T14:59:43;3.67;;;2.20;;
7316;SDS011;3699;51.462;6.696;2023-04-25T15:02:10;5.60;;;2.00;;
7316;SDS011;3699;51.462;6.696;2023-04-25T15:04:37;3.73;;;1.90;;
7316;SDS011;3699;51.462;6.696;2023-04-25T15:07:04;4.37;;;1.70;;
7316;SDS011;3699;51.462;6.696;2023-04-25T15:09:31;7.80;;;1.97;;
7316;SDS011;3699;51.462;6.696;2023-04-25T15:11:57;2.93;;;1.60;;
7316;SDS011;3699;51.462;6.696;2023-04-25T15:14:24;3.07;;;2.20;;